createdAt,value
2019-03-28T00:01:12.421Z,10.33
2019-03-28T00:03:43.031Z,12.07
2019-03-28T00:06:13.631Z,14.37
2019-03-28T00:08:44.346Z,11.77
2019-03-28T00:11:14.978Z,15.83
2019-03-28T00:13:45.585Z,12.23
2019-03-28T00:16:16.187Z,12.07
2019-03-28T00:18:46.779Z,14.03
2019-03-28T00:21:17.452Z,12.57
2019-03-28T00:24:12.846Z,12.17
2019-03-28T00:26:43.461Z,11.23
2019-03-28T00:29:14.135Z,11.83
2019-03-28T00:31:47.728Z,12.53
2019-03-28T00:34:17.164Z,15.77
2019-03-28T00:36:47.815Z,13.07
2019-03-28T00:39:18.485Z,14.63
2019-03-28T00:41:49.073Z,17.33
2019-03-28T00:44:19.729Z,12.83
2019-03-28T00:46:50.451Z,13.57
2019-03-28T00:49:21.052Z,12.63
2019-03-28T00:51:51.770Z,12.70
2019-03-28T00:54:22.449Z,11.63
2019-03-28T00:56:53.318Z,13.00
2019-03-28T00:59:24.310Z,13.23
2019-03-28T01:01:54.910Z,13.50
2019-03-28T01:04:25.609Z,12.47
2019-03-28T01:06:56.293Z,14.10
2019-03-28T01:09:26.971Z,12.97
2019-03-28T01:11:57.793Z,14.73
2019-03-28T01:14:28.451Z,10.13
2019-03-28T01:16:59.223Z,11.10
2019-03-28T01:19:29.878Z,14.27
2019-03-28T01:22:00.567Z,15.53
2019-03-28T01:24:31.343Z,18.60
2019-03-28T01:27:02.335Z,17.30
2019-03-28T01:29:32.996Z,12.23
2019-03-28T01:32:04.197Z,17.70
2019-03-28T01:34:34.853Z,15.97
2019-03-28T01:37:05.469Z,14.20
2019-03-28T01:39:36.048Z,10.37
2019-03-28T01:42:06.682Z,12.97
2019-03-28T01:44:37.301Z,14.37
2019-03-28T01:47:07.967Z,15.30
2019-03-28T01:49:38.570Z,11.73
2019-03-28T01:52:09.198Z,15.57
2019-03-28T01:54:39.809Z,13.50
2019-03-28T01:57:11.607Z,10.93
2019-03-28T01:59:42.777Z,13.27
2019-03-28T02:02:13.379Z,11.77
2019-03-28T02:04:43.982Z,14.23
2019-03-28T02:07:14.628Z,14.63
2019-03-28T02:09:45.238Z,11.93
2019-03-28T02:12:15.861Z,17.57
2019-03-28T02:14:46.487Z,11.43
2019-03-28T02:17:17.136Z,17.93
2019-03-28T02:19:47.767Z,15.47
2019-03-28T02:22:19.307Z,16.43
2019-03-28T02:24:50.039Z,12.93
2019-03-28T02:27:24.292Z,14.03
2019-03-28T02:29:53.419Z,13.50
2019-03-28T02:32:24.312Z,15.53
2019-03-28T02:34:54.890Z,14.33
2019-03-28T02:37:25.524Z,16.53
2019-03-28T02:39:56.127Z,18.70
2019-03-28T02:42:27.805Z,14.23
2019-03-28T02:44:58.848Z,14.37
2019-03-28T02:47:29.533Z,14.13
2019-03-28T02:50:00.473Z,11.20
2019-03-28T02:52:31.248Z,16.00
2019-03-28T02:55:01.857Z,15.13
2019-03-28T02:57:40.820Z,13.50
2019-03-28T03:00:05.033Z,17.27
2019-03-28T03:02:35.661Z,16.10
2019-03-28T03:05:06.338Z,15.40
2019-03-28T03:07:37.037Z,13.80
2019-03-28T03:10:07.725Z,14.50
2019-03-28T03:12:38.311Z,16.60
2019-03-28T03:15:09.871Z,14.43
2019-03-28T03:17:41.535Z,12.27
2019-03-28T03:20:12.593Z,13.30
2019-03-28T03:22:43.373Z,17.47
2019-03-28T03:25:14.253Z,13.27
2019-03-28T03:27:57.003Z,18.10
2019-03-28T03:30:17.775Z,20.53
2019-03-28T03:32:48.480Z,18.57
2019-03-28T03:35:19.063Z,15.13
2019-03-28T03:37:49.665Z,12.97
2019-03-28T03:40:20.383Z,16.57
2019-03-28T03:42:51.121Z,17.87
2019-03-28T03:45:21.745Z,17.93
2019-03-28T03:47:52.368Z,14.87
2019-03-28T03:50:29.695Z,13.57
2019-03-28T03:53:00.305Z,14.13
2019-03-28T03:55:30.913Z,16.67
2019-03-28T03:58:14.254Z,18.43
2019-03-28T04:00:35.395Z,16.93
2019-03-28T04:03:06.147Z,17.40
2019-03-28T04:05:36.763Z,14.57
2019-03-28T04:08:07.372Z,21.90
2019-03-28T04:10:37.968Z,17.70
2019-03-28T04:13:08.544Z,17.30
2019-03-28T04:15:39.122Z,17.10
2019-03-28T04:18:09.762Z,16.87
2019-03-28T04:20:40.325Z,15.90
2019-03-28T04:23:10.967Z,19.10
2019-03-28T04:25:41.555Z,16.03
2019-03-28T04:28:12.738Z,17.23
2019-03-28T04:30:43.544Z,21.67
2019-03-28T04:33:14.170Z,21.00
2019-03-28T04:35:44.765Z,17.20
2019-03-28T04:38:15.413Z,16.03
2019-03-28T04:40:46.007Z,18.87
2019-03-28T04:43:16.636Z,16.23
2019-03-28T04:45:47.199Z,18.13
2019-03-28T04:48:17.919Z,17.67
2019-03-28T04:50:48.518Z,19.37
2019-03-28T04:53:19.165Z,16.77
2019-03-28T04:55:49.789Z,17.67
2019-03-28T04:58:21.895Z,18.53
2019-03-28T05:00:52.742Z,18.30
2019-03-28T05:03:23.535Z,18.60
2019-03-28T05:05:54.369Z,13.90
2019-03-28T05:08:25.178Z,17.50
2019-03-28T05:10:55.843Z,16.43
2019-03-28T05:13:26.489Z,16.80
2019-03-28T05:15:58.364Z,19.83
2019-03-28T05:18:28.984Z,15.60
2019-03-28T05:20:59.610Z,16.87
2019-03-28T05:23:30.199Z,15.60
2019-03-28T05:26:00.827Z,17.50
2019-03-28T05:28:31.481Z,15.57
2019-03-28T05:31:02.228Z,17.00
2019-03-28T05:33:32.891Z,17.67
2019-03-28T05:36:04.561Z,15.30
2019-03-28T05:38:35.393Z,15.77
2019-03-28T05:41:06.016Z,18.33
2019-03-28T05:43:36.683Z,19.47
2019-03-28T05:46:07.291Z,17.93
2019-03-28T05:48:37.959Z,17.57
2019-03-28T05:51:08.573Z,13.40
2019-03-28T05:53:39.217Z,18.70
2019-03-28T05:56:09.841Z,20.77
2019-03-28T05:58:40.465Z,15.00
2019-03-28T06:01:11.068Z,18.73
2019-03-28T06:03:42.424Z,14.67
2019-03-28T06:06:13.163Z,18.43
2019-03-28T06:08:43.793Z,18.43
2019-03-28T06:11:14.403Z,17.03
2019-03-28T06:13:45.055Z,14.50
2019-03-28T06:16:15.635Z,21.20
2019-03-28T06:18:46.451Z,18.83
2019-03-28T06:21:17.227Z,16.93
2019-03-28T06:23:47.870Z,17.17
2019-03-28T06:26:18.521Z,16.93
2019-03-28T06:28:49.171Z,26.47
2019-03-28T06:31:19.804Z,21.57
2019-03-28T06:33:50.439Z,15.30
2019-03-28T06:36:21.033Z,14.57
2019-03-28T06:38:51.667Z,19.50
2019-03-28T06:41:22.740Z,20.57
2019-03-28T06:43:53.846Z,18.47
2019-03-28T06:46:24.479Z,23.17
2019-03-28T06:48:55.340Z,19.27
2019-03-28T06:51:25.947Z,22.07
2019-03-28T06:53:57.262Z,22.37
2019-03-28T06:56:28.016Z,19.57
2019-03-28T06:58:58.665Z,19.33
2019-03-28T07:01:29.251Z,22.00
2019-03-28T07:03:59.862Z,20.87
2019-03-28T07:06:30.508Z,19.97
2019-03-28T07:09:01.145Z,21.67
2019-03-28T07:11:31.787Z,15.07
2019-03-28T07:14:02.618Z,21.83
2019-03-28T07:16:33.509Z,23.40
2019-03-28T07:19:04.342Z,19.33
2019-03-28T07:21:35.047Z,19.10
2019-03-28T07:24:05.659Z,19.53
2019-03-28T07:26:36.304Z,19.37
2019-03-28T07:29:06.918Z,19.63
2019-03-28T07:31:37.589Z,21.57
2019-03-28T07:34:08.159Z,17.37
2019-03-28T07:36:38.838Z,17.93
2019-03-28T07:39:09.457Z,17.00
2019-03-28T07:41:40.111Z,17.63
2019-03-28T07:44:10.728Z,18.77
2019-03-28T07:46:41.369Z,15.73
2019-03-28T07:49:12.098Z,19.87
2019-03-28T07:51:42.790Z,18.30
2019-03-28T07:54:13.613Z,17.13
2019-03-28T07:56:44.315Z,19.17
2019-03-28T07:59:15.230Z,14.83
2019-03-28T08:01:45.857Z,15.47
2019-03-28T08:04:16.540Z,20.57
2019-03-28T08:06:50.035Z,16.67
2019-03-28T08:09:19.579Z,20.97
2019-03-28T08:11:50.277Z,21.47
2019-03-28T08:14:20.922Z,14.13
2019-03-28T08:16:51.614Z,17.23
2019-03-28T08:19:22.522Z,18.37
2019-03-28T08:21:56.163Z,14.67
2019-03-28T08:24:26.799Z,15.60
2019-03-28T08:26:58.328Z,18.60
2019-03-28T08:29:28.998Z,15.07
2019-03-28T08:32:00.213Z,20.97
2019-03-28T08:34:31.387Z,13.87
2019-03-28T08:37:05.667Z,18.90
2019-03-28T08:39:36.277Z,15.40
2019-03-28T08:42:06.956Z,17.97
2019-03-28T08:44:38.538Z,19.00
2019-03-28T08:47:09.403Z,16.83
2019-03-28T08:49:40.084Z,19.87
2019-03-28T08:52:11.904Z,13.53
2019-03-28T08:54:42.742Z,13.93
2019-03-28T08:57:13.850Z,20.27
2019-03-28T08:59:44.470Z,16.80
2019-03-28T09:02:15.090Z,17.07
2019-03-28T09:04:45.704Z,14.47
2019-03-28T09:07:17.533Z,14.40
2019-03-28T09:09:48.370Z,14.90
2019-03-28T09:12:19.091Z,14.70
2019-03-28T09:14:49.715Z,15.57
2019-03-28T09:17:23.611Z,17.33
2019-03-28T09:19:52.667Z,17.60
2019-03-28T09:22:23.302Z,15.67
2019-03-28T09:24:53.910Z,20.77
2019-03-28T09:27:25.552Z,14.27
2019-03-28T09:29:56.154Z,17.73
2019-03-28T09:32:26.802Z,23.77
2019-03-28T09:34:57.798Z,19.60
2019-03-28T09:37:28.480Z,17.00
2019-03-28T09:39:59.098Z,17.57
2019-03-28T09:42:29.728Z,25.20
2019-03-28T09:45:00.392Z,18.10
2019-03-28T09:47:31.010Z,13.77
2019-03-28T09:50:01.627Z,18.07
2019-03-28T09:52:32.273Z,16.07
2019-03-28T09:55:02.851Z,18.87
2019-03-28T09:57:33.496Z,14.70
2019-03-28T10:00:04.402Z,24.77
2019-03-28T10:02:35.056Z,18.57
2019-03-28T10:05:05.681Z,14.90
2019-03-28T10:07:38.503Z,18.50
2019-03-28T10:10:09.260Z,21.87
2019-03-28T10:12:40.200Z,23.80
2019-03-28T10:15:10.902Z,21.30
2019-03-28T10:17:42.513Z,18.37
2019-03-28T10:20:13.322Z,16.80
2019-03-28T10:22:43.957Z,22.67
2019-03-28T10:25:14.819Z,21.60
2019-03-28T10:27:45.406Z,16.10
2019-03-28T10:30:16.930Z,18.87
2019-03-28T10:32:47.582Z,18.70
2019-03-28T10:35:27.915Z,19.00
2019-03-28T10:37:58.564Z,16.40
2019-03-28T10:40:29.156Z,23.17
2019-03-28T10:42:59.780Z,14.67
2019-03-28T10:45:33.444Z,17.37
2019-03-28T10:48:02.756Z,16.27
2019-03-28T10:50:40.806Z,16.43
2019-03-28T10:53:05.701Z,14.60
2019-03-28T10:55:36.449Z,13.57
2019-03-28T10:58:17.482Z,14.03
2019-03-28T11:00:39.440Z,20.07
2019-03-28T11:03:10.057Z,17.63
2019-03-28T11:05:40.881Z,15.50
2019-03-28T11:08:11.503Z,16.80
2019-03-28T11:10:42.103Z,19.20
2019-03-28T11:13:12.736Z,15.63
2019-03-28T11:15:43.348Z,15.10
2019-03-28T11:18:14.056Z,14.30
2019-03-28T11:20:44.719Z,10.23
2019-03-28T11:23:15.367Z,16.90
2019-03-28T11:25:45.989Z,11.87
2019-03-28T11:28:16.651Z,11.83
2019-03-28T11:30:47.259Z,15.13
2019-03-28T11:33:17.913Z,18.97
2019-03-28T11:35:48.477Z,13.33
2019-03-28T11:38:19.107Z,14.33
2019-03-28T11:40:49.805Z,13.13
2019-03-28T11:43:20.695Z,15.67
2019-03-28T11:45:51.321Z,12.75
2019-03-28T11:48:22.033Z,16.70
2019-03-28T11:50:52.667Z,12.57
2019-03-28T11:53:23.296Z,15.30
2019-03-28T11:55:53.954Z,13.20
2019-03-28T11:58:24.574Z,10.70
2019-03-28T12:00:55.180Z,14.00
2019-03-28T12:03:25.841Z,10.80
2019-03-28T12:05:56.459Z,12.87
2019-03-28T12:08:27.165Z,13.00
2019-03-28T12:10:57.949Z,12.17
2019-03-28T12:13:28.589Z,9.43
2019-03-28T12:15:59.261Z,12.10
2019-03-28T12:18:29.905Z,11.27
2019-03-28T12:21:00.565Z,9.03
2019-03-28T12:23:31.315Z,12.40
2019-03-28T12:26:02.019Z,9.00
2019-03-28T12:28:32.711Z,11.33
2019-03-28T12:31:03.373Z,11.20
2019-03-28T12:33:33.977Z,9.67
2019-03-28T12:36:04.627Z,12.43
2019-03-28T12:38:35.243Z,9.70
2019-03-28T12:41:06.102Z,13.67
2019-03-28T12:43:36.779Z,10.90
2019-03-28T12:46:07.408Z,8.70
2019-03-28T12:48:38.079Z,11.90
2019-03-28T12:51:08.777Z,11.47
2019-03-28T12:53:39.494Z,10.67
2019-03-28T12:56:10.133Z,11.80
2019-03-28T12:58:40.756Z,9.30
2019-03-28T13:01:11.484Z,9.53
2019-03-28T13:03:45.757Z,11.30
2019-03-28T13:06:14.581Z,13.93
2019-03-28T13:08:45.236Z,12.80
2019-03-28T13:11:15.935Z,12.50
2019-03-28T13:13:46.602Z,11.80
2019-03-28T13:16:17.307Z,14.27
2019-03-28T13:18:47.946Z,8.63
2019-03-28T13:21:18.587Z,10.50
2019-03-28T13:23:49.213Z,7.57
2019-03-28T13:26:19.859Z,12.70
2019-03-28T13:28:50.481Z,8.43
2019-03-28T13:31:21.111Z,11.37
2019-03-28T13:33:51.812Z,10.27
2019-03-28T13:36:22.507Z,14.87
2019-03-28T13:38:53.161Z,9.03
2019-03-28T13:41:23.772Z,12.03
2019-03-28T13:43:54.400Z,14.83
2019-03-28T13:46:25.094Z,11.07
2019-03-28T13:48:55.732Z,9.73
2019-03-28T13:51:26.391Z,8.57
2019-03-28T13:53:56.989Z,6.87
2019-03-28T13:56:27.661Z,12.13
2019-03-28T13:58:58.244Z,8.13
2019-03-28T14:01:28.884Z,11.20
2019-03-28T14:03:59.474Z,8.47
2019-03-28T14:06:30.626Z,9.63
2019-03-28T14:09:01.531Z,7.23
2019-03-28T14:11:32.161Z,7.30
2019-03-28T14:14:02.753Z,7.77
2019-03-28T14:16:33.375Z,7.37
2019-03-28T14:19:04.051Z,5.93
2019-03-28T14:21:34.830Z,7.63
2019-03-28T14:24:05.557Z,8.33
2019-03-28T14:26:37.651Z,8.63
2019-03-28T14:29:08.366Z,8.33
2019-03-28T14:31:39.055Z,7.37
2019-03-28T14:34:09.684Z,8.10
2019-03-28T14:36:40.393Z,6.90
2019-03-28T14:39:10.943Z,8.00
2019-03-28T14:41:41.581Z,6.40
2019-03-28T14:44:12.173Z,6.63
2019-03-28T14:46:42.792Z,9.10
2019-03-28T14:49:13.432Z,7.40
2019-03-28T14:51:44.085Z,7.73
2019-03-28T14:54:14.737Z,12.80
2019-03-28T14:56:45.364Z,7.27
2019-03-28T14:59:16.671Z,5.77
2019-03-28T15:01:47.297Z,6.90
2019-03-28T15:04:17.929Z,5.33
2019-03-28T15:06:48.567Z,6.23
2019-03-28T15:09:19.232Z,5.93
2019-03-28T15:11:49.857Z,4.83
2019-03-28T15:14:20.507Z,2.90
2019-03-28T15:16:51.141Z,4.10
2019-03-28T15:19:21.750Z,3.37
2019-03-28T15:21:52.394Z,2.50
2019-03-28T15:24:23.029Z,2.50
2019-03-28T15:26:53.936Z,1.97
2019-03-28T15:29:24.623Z,1.67
2019-03-28T15:31:55.307Z,3.23
2019-03-28T15:34:25.895Z,2.83
2019-03-28T15:36:56.513Z,4.03
2019-03-28T15:39:27.152Z,2.67
2019-03-28T15:41:57.805Z,2.50
2019-03-28T15:44:28.401Z,2.80
2019-03-28T15:46:59.011Z,3.43
2019-03-28T15:49:29.634Z,2.93
2019-03-28T15:52:03.081Z,4.13
2019-03-28T15:54:32.614Z,4.77
2019-03-28T15:57:03.250Z,5.80
2019-03-28T15:59:33.835Z,4.15
2019-03-28T16:02:04.470Z,2.63
2019-03-28T16:04:35.111Z,4.20
2019-03-28T16:07:05.800Z,2.83
2019-03-28T16:09:36.443Z,4.17
2019-03-28T16:12:08.414Z,4.93
2019-03-28T16:14:39.033Z,3.17
2019-03-28T16:17:09.675Z,2.93
2019-03-28T16:19:40.271Z,5.90
2019-03-28T16:22:11.758Z,4.30
2019-03-28T16:24:42.561Z,6.40
2019-03-28T16:27:13.307Z,2.73
2019-03-28T16:29:43.924Z,3.10
2019-03-28T16:32:16.224Z,4.53
2019-03-28T16:34:46.929Z,5.00
2019-03-28T16:37:17.571Z,3.70
2019-03-28T16:39:50.007Z,3.80
2019-03-28T16:42:20.497Z,5.00
2019-03-28T16:44:51.058Z,4.40
2019-03-28T16:47:21.766Z,4.23
2019-03-28T16:49:52.413Z,6.50
2019-03-28T16:52:23.106Z,5.93
2019-03-28T16:54:53.700Z,3.80
2019-03-28T16:57:24.404Z,6.13
2019-03-28T16:59:55.147Z,4.80
2019-03-28T17:02:25.833Z,3.33
2019-03-28T17:04:56.549Z,4.73
2019-03-28T17:07:27.685Z,4.53
2019-03-28T17:09:58.568Z,4.47
2019-03-28T17:12:29.204Z,5.83
2019-03-28T17:14:59.801Z,10.57
2019-03-28T17:17:30.427Z,18.90
2019-03-28T17:20:01.048Z,11.33
2019-03-28T17:22:31.714Z,11.97
2019-03-28T17:25:02.411Z,11.50
2019-03-28T17:27:33.136Z,14.43
2019-03-28T17:30:06.930Z,19.00
2019-03-28T17:32:36.844Z,9.07
2019-03-28T17:35:07.804Z,6.33
2019-03-28T17:37:38.470Z,9.50
2019-03-28T17:40:09.185Z,9.80
2019-03-28T17:42:39.821Z,10.97
2019-03-28T17:45:10.459Z,13.50
2019-03-28T17:47:41.131Z,7.93
2019-03-28T17:50:11.869Z,7.37
2019-03-28T17:52:42.541Z,5.03
2019-03-28T17:55:13.150Z,7.57
2019-03-28T17:57:43.768Z,6.70
2019-03-28T18:00:14.419Z,6.33
2019-03-28T18:02:45.040Z,8.03
2019-03-28T18:05:16.066Z,6.67
2019-03-28T18:07:46.823Z,8.30
2019-03-28T18:10:17.535Z,8.30
2019-03-28T18:12:48.133Z,7.47
2019-03-28T18:15:18.743Z,6.87
2019-03-28T18:17:49.321Z,7.47
2019-03-28T18:20:19.940Z,6.87
2019-03-28T18:22:50.527Z,5.90
2019-03-28T18:25:21.141Z,5.90
2019-03-28T18:27:51.739Z,5.97
2019-03-28T18:30:22.619Z,6.37
2019-03-28T18:32:53.222Z,8.27
2019-03-28T18:35:23.818Z,7.63
2019-03-28T18:37:54.470Z,5.40
2019-03-28T18:40:25.071Z,4.83
2019-03-28T18:42:55.712Z,8.90
2019-03-28T18:45:26.328Z,6.77
2019-03-28T18:47:57.005Z,6.60
2019-03-28T18:50:30.386Z,7.23
2019-03-28T18:53:01.790Z,5.70
2019-03-28T18:55:32.422Z,4.80
2019-03-28T18:58:03.049Z,5.90
2019-03-28T19:00:33.693Z,6.83
2019-03-28T19:03:04.358Z,5.37
2019-03-28T19:05:34.966Z,4.87
2019-03-28T19:08:05.580Z,7.23
2019-03-28T19:10:36.248Z,7.10
2019-03-28T19:13:06.963Z,5.13
2019-03-28T19:15:37.580Z,7.97
2019-03-28T19:18:08.231Z,7.27
2019-03-28T19:20:38.819Z,9.33
2019-03-28T19:23:09.451Z,6.90
2019-03-28T19:25:40.043Z,7.20
2019-03-28T19:28:11.064Z,6.73
2019-03-28T19:30:41.939Z,4.80
2019-03-28T19:33:12.598Z,7.87
2019-03-28T19:35:43.226Z,6.90
2019-03-28T19:38:13.854Z,8.57
2019-03-28T19:40:44.489Z,9.60
2019-03-28T19:43:20.913Z,7.43
2019-03-28T19:45:47.396Z,6.00
2019-03-28T19:48:18.015Z,9.63
2019-03-28T19:50:48.611Z,13.10
2019-03-28T19:53:19.239Z,10.57
2019-03-28T19:55:49.812Z,4.90
2019-03-28T19:58:20.457Z,7.03
2019-03-28T20:00:51.159Z,10.60
2019-03-28T20:03:23.409Z,8.57
2019-03-28T20:05:54.362Z,8.53
2019-03-28T20:08:26.344Z,11.13
2019-03-28T20:10:57.099Z,7.33
2019-03-28T20:13:30.724Z,8.23
2019-03-28T20:16:00.061Z,8.03
2019-03-28T20:18:30.725Z,7.03
2019-03-28T20:21:02.344Z,10.07
2019-03-28T20:23:35.441Z,5.87
2019-03-28T20:26:05.306Z,8.27
2019-03-28T20:28:35.875Z,7.03
2019-03-28T20:31:06.507Z,9.10
2019-03-28T20:33:37.842Z,8.63
2019-03-28T20:36:35.751Z,9.07
2019-03-28T20:38:41.077Z,10.40
2019-03-28T20:41:11.795Z,7.17
2019-03-28T20:43:42.387Z,8.40
2019-03-28T20:46:13.055Z,8.97
2019-03-28T20:48:43.703Z,7.23
2019-03-28T20:51:14.306Z,5.60
2019-03-28T20:53:44.927Z,7.03
2019-03-28T20:56:15.555Z,12.00
2019-03-28T20:58:46.217Z,9.93
2019-03-28T21:01:16.837Z,7.50
2019-03-28T21:03:49.566Z,12.13
2019-03-28T21:06:20.226Z,8.80
2019-03-28T21:08:50.813Z,15.70
2019-03-28T21:11:21.458Z,8.10
2019-03-28T21:13:52.031Z,7.70
2019-03-28T21:16:22.635Z,10.23
2019-03-28T21:18:53.242Z,8.43
2019-03-28T21:21:23.873Z,11.73
2019-03-28T21:23:54.488Z,9.80
2019-03-28T21:26:25.155Z,9.20
2019-03-28T21:28:55.767Z,9.30
2019-03-28T21:31:26.413Z,8.43
2019-03-28T21:33:57.019Z,10.67
2019-03-28T21:36:30.102Z,10.80
2019-03-28T21:38:59.962Z,12.57
2019-03-28T21:41:30.649Z,8.00
2019-03-28T21:44:01.261Z,9.20
2019-03-28T21:46:32.269Z,10.97
2019-03-28T21:49:03.577Z,13.03
2019-03-28T21:51:34.243Z,8.73
2019-03-28T21:54:05.271Z,11.93
2019-03-28T21:56:36.049Z,11.67
2019-03-28T21:59:06.757Z,12.73
2019-03-28T22:01:37.462Z,11.47
2019-03-28T22:04:08.914Z,9.43
2019-03-28T22:06:43.174Z,11.00
2019-03-28T22:09:12.267Z,10.20
2019-03-28T22:11:42.959Z,8.13
2019-03-28T22:14:13.819Z,12.60
2019-03-28T22:16:44.655Z,13.60
2019-03-28T22:19:15.330Z,14.23
2019-03-28T22:21:45.966Z,13.47
2019-03-28T22:24:16.626Z,12.50
2019-03-28T22:26:47.350Z,12.37
2019-03-28T22:29:17.997Z,11.37
2019-03-28T22:31:48.700Z,13.03
2019-03-28T22:34:19.476Z,11.37
2019-03-28T22:36:57.237Z,12.83
2019-03-28T22:39:22.530Z,14.93
2019-03-28T22:41:53.248Z,11.13
2019-03-28T22:44:24.812Z,15.00
2019-03-28T22:46:55.674Z,10.53
2019-03-28T22:49:26.364Z,11.20
2019-03-28T22:51:57.161Z,8.07
2019-03-28T22:54:27.776Z,10.90
2019-03-28T22:56:58.463Z,16.40
2019-03-28T22:59:29.178Z,11.80
2019-03-28T23:01:59.882Z,10.40
2019-03-28T23:04:29.723Z,13.57
2019-03-28T23:07:10.407Z,11.47
2019-03-28T23:09:31.116Z,13.03
2019-03-28T23:12:03.082Z,13.00
2019-03-28T23:14:32.918Z,10.03
2019-03-28T23:17:02.753Z,12.97
2019-03-28T23:19:32.590Z,11.63
2019-03-28T23:22:02.454Z,10.23
2019-03-28T23:24:32.294Z,8.97
2019-03-28T23:27:02.309Z,9.77
2019-03-28T23:29:32.209Z,12.27
2019-03-28T23:32:02.670Z,13.47
2019-03-28T23:34:32.486Z,10.20
2019-03-28T23:37:02.377Z,13.87
2019-03-28T23:39:32.196Z,11.33
2019-03-28T23:42:02.612Z,11.87
2019-03-28T23:44:32.412Z,10.67
2019-03-28T23:47:02.250Z,12.93
2019-03-28T23:49:32.112Z,12.77
2019-03-28T23:52:02.737Z,12.77
2019-03-28T23:54:32.552Z,12.53
2019-03-28T23:57:03.087Z,13.40
2019-03-28T23:59:33.058Z,12.47
